createdAt,value
2018-07-17T00:01:23.113Z,4.20
2018-07-17T00:03:52.079Z,3.90
2018-07-17T00:06:20.451Z,4.20
2018-07-17T00:08:48.773Z,4.27
2018-07-17T00:11:16.758Z,6.27
2018-07-17T00:13:45.115Z,4.77
2018-07-17T00:16:13.361Z,5.03
2018-07-17T00:18:42.621Z,3.97
2018-07-17T00:21:13.350Z,4.27
2018-07-17T00:23:42.285Z,4.77
2018-07-17T00:26:11.826Z,4.27
2018-07-17T00:28:40.882Z,5.77
2018-07-17T00:31:09.447Z,3.93
2018-07-17T00:33:37.882Z,3.80
2018-07-17T00:36:07.339Z,4.03
2018-07-17T00:38:36.726Z,3.83
2018-07-17T00:41:05.356Z,4.03
2018-07-17T00:43:34.842Z,4.27
2018-07-17T00:46:03.328Z,4.13
2018-07-17T00:48:32.485Z,3.60
2018-07-17T00:51:00.845Z,4.60
2018-07-17T00:53:30.447Z,4.07
2018-07-17T00:55:59.067Z,4.67
2018-07-17T00:58:27.735Z,4.57
2018-07-17T01:00:58.136Z,4.53
2018-07-17T01:03:30.319Z,4.73
2018-07-17T01:06:02.806Z,4.77
2018-07-17T01:08:35.314Z,4.97
2018-07-17T01:11:07.647Z,7.23
2018-07-17T01:13:40.032Z,5.93
2018-07-17T01:16:08.327Z,4.40
2018-07-17T01:18:36.669Z,5.30
2018-07-17T01:21:04.749Z,5.77
2018-07-17T01:23:32.721Z,5.03
2018-07-17T01:26:00.578Z,5.13
2018-07-17T01:28:28.333Z,5.63
2018-07-17T01:30:56.703Z,5.40
2018-07-17T01:33:24.803Z,4.13
2018-07-17T01:35:53.181Z,4.53
2018-07-17T01:38:22.123Z,3.73
2018-07-17T01:40:51.691Z,3.53
2018-07-17T01:43:23.386Z,4.03
2018-07-17T01:45:56.425Z,6.20
2018-07-17T01:48:25.621Z,4.10
2018-07-17T01:50:54.304Z,7.50
2018-07-17T01:53:22.701Z,5.77
2018-07-17T01:55:51.337Z,4.07
2018-07-17T01:58:19.542Z,4.30
2018-07-17T02:00:49.317Z,5.97
2018-07-17T02:03:18.151Z,6.47
2018-07-17T02:05:46.325Z,4.40
2018-07-17T02:08:15.183Z,4.13
2018-07-17T02:10:43.712Z,4.13
2018-07-17T02:13:11.972Z,6.50
2018-07-17T02:15:40.171Z,5.63
2018-07-17T02:18:07.995Z,6.17
2018-07-17T02:20:37.583Z,3.50
2018-07-17T02:23:06.023Z,4.70
2018-07-17T02:25:35.474Z,3.47
2018-07-17T02:28:03.590Z,3.70
2018-07-17T02:30:31.382Z,3.77
2018-07-17T02:32:59.314Z,4.40
2018-07-17T02:35:27.195Z,5.13
2018-07-17T02:37:55.182Z,4.87
2018-07-17T02:40:22.743Z,4.57
2018-07-17T02:42:50.686Z,5.67
2018-07-17T02:45:18.620Z,4.30
2018-07-17T02:50:32.676Z,4.10
2018-07-17T02:53:00.650Z,4.30
2018-07-17T02:55:29.442Z,5.70
2018-07-17T02:57:57.386Z,4.17
2018-07-17T03:02:58.446Z,5.37
2018-07-17T03:05:27.844Z,6.00
2018-07-17T03:07:55.359Z,5.10
2018-07-17T03:10:29.518Z,4.20
2018-07-17T03:12:59.422Z,4.20
2018-07-17T03:15:28.476Z,4.30
2018-07-17T03:17:56.870Z,4.40
2018-07-17T03:20:25.356Z,4.43
2018-07-17T03:22:54.321Z,4.13
2018-07-17T03:25:23.575Z,4.10
2018-07-17T03:27:51.916Z,5.27
2018-07-17T03:30:20.097Z,4.20
2018-07-17T03:32:48.236Z,4.07
2018-07-17T03:35:23.026Z,4.20
2018-07-17T03:37:50.857Z,6.70
2018-07-17T03:40:18.648Z,5.33
2018-07-17T03:42:47.868Z,6.70
2018-07-17T03:45:16.045Z,4.00
2018-07-17T03:50:39.800Z,4.50
2018-07-17T03:53:08.601Z,4.20
2018-07-17T03:55:36.959Z,3.97
2018-07-17T03:58:04.870Z,4.00
2018-07-17T04:00:32.435Z,4.53
2018-07-17T04:03:01.183Z,6.60
2018-07-17T04:05:28.973Z,8.20
2018-07-17T04:07:58.619Z,5.70
2018-07-17T04:10:26.552Z,5.43
2018-07-17T04:12:54.771Z,6.53
2018-07-17T04:15:23.173Z,5.57
2018-07-17T04:17:51.064Z,4.50
2018-07-17T04:20:19.222Z,4.63
2018-07-17T04:22:47.068Z,4.83
2018-07-17T04:27:49.334Z,8.73
2018-07-17T04:30:17.300Z,5.60
2018-07-17T04:32:45.320Z,9.00
2018-07-17T04:35:14.058Z,6.97
2018-07-17T04:37:42.703Z,9.70
2018-07-17T04:40:11.792Z,8.70
2018-07-17T04:42:39.912Z,11.40
2018-07-17T04:45:07.984Z,16.23
2018-07-17T04:56:05.139Z,18.43
2018-07-17T04:58:45.914Z,24.10
2018-07-17T05:01:14.088Z,26.23
2018-07-17T05:03:41.976Z,24.03
2018-07-17T05:06:10.254Z,29.97
2018-07-17T05:08:39.051Z,26.53
2018-07-17T05:11:06.784Z,30.70
2018-07-17T05:13:34.378Z,30.43
2018-07-17T05:16:02.730Z,31.03
2018-07-17T05:18:30.421Z,26.07
2018-07-17T05:20:59.459Z,24.90
2018-07-17T05:23:27.315Z,26.57
2018-07-17T05:25:55.639Z,24.03
2018-07-17T05:28:23.709Z,22.03
2018-07-17T05:30:51.581Z,23.53
2018-07-17T05:33:25.834Z,26.80
2018-07-17T05:35:53.645Z,22.90
2018-07-17T05:38:21.748Z,20.60
2018-07-17T05:40:52.019Z,20.40
2018-07-17T05:43:24.266Z,17.13
2018-07-17T05:46:02.490Z,16.53
2018-07-17T05:51:33.363Z,16.93
2018-07-17T05:54:01.770Z,17.77
2018-07-17T05:56:34.451Z,12.83
2018-07-17T05:59:03.130Z,13.83
2018-07-17T06:01:31.916Z,16.97
2018-07-17T06:04:01.132Z,11.80
2018-07-17T06:06:31.491Z,14.77
2018-07-17T06:09:01.656Z,16.00
2018-07-17T06:11:31.531Z,11.13
2018-07-17T06:13:59.670Z,10.20
2018-07-17T06:16:28.180Z,11.50
2018-07-17T06:18:57.872Z,10.93
2018-07-17T06:21:25.948Z,10.47
2018-07-17T06:23:56.958Z,8.70
2018-07-17T06:26:25.353Z,10.77
2018-07-17T06:28:53.545Z,10.83
2018-07-17T06:31:22.728Z,10.93
2018-07-17T06:33:51.245Z,9.47
2018-07-17T06:36:19.318Z,7.40
2018-07-17T06:38:48.776Z,8.87
2018-07-17T06:41:17.451Z,9.53
2018-07-17T06:43:47.224Z,8.80
2018-07-17T06:46:22.747Z,11.00
2018-07-17T06:48:51.307Z,6.93
2018-07-17T06:51:19.424Z,6.33
2018-07-17T06:53:48.092Z,7.50
2018-07-17T06:56:16.387Z,10.70
2018-07-17T06:58:44.442Z,9.63
2018-07-17T07:01:15.304Z,8.23
2018-07-17T07:03:51.119Z,10.33
2018-07-17T07:06:19.584Z,18.20
2018-07-17T07:08:47.697Z,9.67
2018-07-17T07:22:22.264Z,6.97
2018-07-17T07:24:52.376Z,7.67
2018-07-17T07:27:21.901Z,7.20
2018-07-17T07:29:50.436Z,5.43
2018-07-17T07:32:18.650Z,7.03
2018-07-17T07:34:47.192Z,7.67
2018-07-17T07:37:15.507Z,5.77
2018-07-17T07:39:44.034Z,4.90
2018-07-17T07:42:12.420Z,4.83
2018-07-17T07:44:46.688Z,7.23
2018-07-17T07:47:22.309Z,6.10
2018-07-17T07:49:55.313Z,6.93
2018-07-17T07:52:26.151Z,4.03
2018-07-17T07:54:59.275Z,6.50
2018-07-17T07:57:28.527Z,4.57
2018-07-17T07:59:59.663Z,5.03
2018-07-17T08:02:29.167Z,4.07
2018-07-17T08:04:59.382Z,4.77
2018-07-17T08:07:47.258Z,3.97
2018-07-17T08:10:19.838Z,5.70
2018-07-17T08:15:27.322Z,4.03
2018-07-17T08:18:00.470Z,4.03
2018-07-17T08:20:29.377Z,4.10
2018-07-17T08:23:02.773Z,3.87
2018-07-17T08:26:00.381Z,4.20
2018-07-17T08:28:29.527Z,3.93
2018-07-17T08:30:59.728Z,4.53
2018-07-17T08:33:30.412Z,3.47
2018-07-17T08:36:02.150Z,4.00
2018-07-17T08:38:32.338Z,3.70
2018-07-17T08:41:02.485Z,3.60
2018-07-17T08:43:33.734Z,3.63
2018-07-17T08:46:02.332Z,3.70
2018-07-17T08:48:33.981Z,3.90
2018-07-17T08:51:02.992Z,4.40
2018-07-17T08:53:31.270Z,3.70
2018-07-17T08:55:58.953Z,4.00
2018-07-17T08:58:27.351Z,4.60
2018-07-17T09:00:55.424Z,4.43
2018-07-17T09:03:26.834Z,4.50
2018-07-17T09:05:56.387Z,3.80
2018-07-17T09:08:29.138Z,4.03
2018-07-17T09:10:58.794Z,5.87
2018-07-17T09:13:27.327Z,8.50
2018-07-17T09:16:02.040Z,7.67
2018-07-17T09:18:55.714Z,8.90
2018-07-17T09:21:28.186Z,7.77
2018-07-17T09:23:57.912Z,7.63
2018-07-17T09:26:29.974Z,7.97
2018-07-17T09:28:59.388Z,5.03
2018-07-17T09:31:30.223Z,5.63
2018-07-17T09:34:01.844Z,5.50
2018-07-17T09:36:37.161Z,9.17
2018-07-17T09:39:14.175Z,14.53
2018-07-17T09:41:47.140Z,11.20
2018-07-17T09:44:19.167Z,13.43
2018-07-17T09:47:01.958Z,17.60
2018-07-17T09:49:30.479Z,13.03
2018-07-17T09:52:01.508Z,12.37
2018-07-17T09:54:34.611Z,12.73
2018-07-17T09:57:05.675Z,12.50
2018-07-17T09:59:37.335Z,11.70
2018-07-17T10:02:12.117Z,10.80
2018-07-17T10:04:45.822Z,8.37
2018-07-17T10:07:14.979Z,10.37
2018-07-17T10:10:03.738Z,10.17
2018-07-17T10:12:46.729Z,12.87
2018-07-17T10:15:26.826Z,8.50
2018-07-17T10:21:02.568Z,9.17
2018-07-17T10:23:43.769Z,8.03
2018-07-17T10:26:22.303Z,13.37
2018-07-17T10:28:57.615Z,7.87
2018-07-17T10:31:27.584Z,12.40
2018-07-17T10:33:57.226Z,10.30
2018-07-17T10:36:36.984Z,11.13
2018-07-17T10:39:09.609Z,10.07
2018-07-17T10:41:42.624Z,10.03
2018-07-17T10:44:13.630Z,11.37
2018-07-17T10:46:43.366Z,8.17
2018-07-17T10:49:22.244Z,8.03
2018-07-17T10:51:55.865Z,9.00
2018-07-17T10:54:27.032Z,8.90
2018-07-17T10:56:57.791Z,7.10
2018-07-17T10:59:30.986Z,6.83
2018-07-17T11:05:06.442Z,9.23
2018-07-17T11:07:36.524Z,5.20
2018-07-17T11:10:05.936Z,4.27
2018-07-17T11:12:36.585Z,5.10
2018-07-17T11:15:13.534Z,4.83
2018-07-17T11:17:44.293Z,6.07
2018-07-17T11:20:25.284Z,5.13
2018-07-17T11:23:05.459Z,4.63
2018-07-17T11:25:54.098Z,3.53
2018-07-17T11:28:40.575Z,4.43
2018-07-17T11:31:23.291Z,4.90
2018-07-17T11:34:01.046Z,4.77
2018-07-17T11:36:36.298Z,5.43
2018-07-17T11:39:26.870Z,4.30
2018-07-17T11:42:24.441Z,3.50
2018-07-17T11:45:08.587Z,3.23
2018-07-17T11:47:58.950Z,3.30
2018-07-17T11:50:32.198Z,3.80
2018-07-17T11:53:06.416Z,4.07
2018-07-17T11:55:38.823Z,3.20
2018-07-17T12:00:42.039Z,4.53
2018-07-17T12:03:11.764Z,4.10
2018-07-17T12:05:48.414Z,4.47
2018-07-17T12:08:22.330Z,3.17
2018-07-17T12:10:56.271Z,4.10
2018-07-17T12:13:28.779Z,3.70
2018-07-17T12:16:08.861Z,3.43
2018-07-17T12:18:46.392Z,4.97
2018-07-17T12:21:20.511Z,4.20
2018-07-17T12:23:57.649Z,4.23
2018-07-17T12:26:34.144Z,3.40
2018-07-17T12:29:06.698Z,3.63
2018-07-17T12:31:35.386Z,3.37
2018-07-17T12:34:05.045Z,3.23
2018-07-17T12:36:33.464Z,3.00
2018-07-17T12:39:04.353Z,3.80
2018-07-17T12:41:39.539Z,3.40
2018-07-17T12:44:13.893Z,2.80
2018-07-17T12:46:50.996Z,3.10
2018-07-17T12:49:25.280Z,3.20
2018-07-17T12:51:59.596Z,3.03
2018-07-17T12:54:33.926Z,3.30
2018-07-17T12:57:06.408Z,3.10
2018-07-17T12:59:35.784Z,3.70
2018-07-17T13:02:08.764Z,3.50
2018-07-17T13:07:29.481Z,2.87
2018-07-17T13:10:00.687Z,3.13
2018-07-17T13:12:34.878Z,3.20
2018-07-17T13:15:05.639Z,3.93
2018-07-17T13:17:38.777Z,3.53
2018-07-17T13:20:11.820Z,3.27
2018-07-17T13:22:44.790Z,3.73
2018-07-17T13:25:13.887Z,3.57
2018-07-17T13:27:44.791Z,3.80
2018-07-17T13:30:17.060Z,3.90
2018-07-17T13:32:48.524Z,3.57
2018-07-17T13:35:25.446Z,3.07
2018-07-17T13:38:10.835Z,3.67
2018-07-17T13:40:46.788Z,4.13
2018-07-17T13:43:17.684Z,5.00
2018-07-17T13:46:00.408Z,3.10
2018-07-17T13:48:53.053Z,2.90
2018-07-17T13:54:24.565Z,3.43
2018-07-17T13:57:08.764Z,2.93
2018-07-17T14:03:01.511Z,3.30
2018-07-17T14:05:46.282Z,4.47
2018-07-17T14:11:29.003Z,2.70
2018-07-17T14:14:06.694Z,3.27
2018-07-17T14:16:58.246Z,2.93
2018-07-17T14:22:25.181Z,3.20
2018-07-17T14:25:20.616Z,3.10
2018-07-17T14:28:01.120Z,3.87
2018-07-17T14:30:45.812Z,3.43
2018-07-17T14:33:35.742Z,3.17
2018-07-17T14:36:06.172Z,3.23
2018-07-17T14:38:51.191Z,3.40
2018-07-17T14:41:27.652Z,4.00
2018-07-17T14:44:02.271Z,2.87
2018-07-17T14:46:35.582Z,3.17
2018-07-17T14:49:08.406Z,3.07
2018-07-17T14:51:48.863Z,3.03
2018-07-17T14:54:38.697Z,2.70
2018-07-17T14:57:11.406Z,3.50
2018-07-17T15:00:03.189Z,2.80
2018-07-17T15:02:41.442Z,2.73
2018-07-17T15:05:26.981Z,3.10
2018-07-17T15:08:23.089Z,2.90
2018-07-17T15:11:01.892Z,3.40
2018-07-17T15:13:37.007Z,3.10
2018-07-17T15:16:09.792Z,3.20
2018-07-17T15:18:59.032Z,3.10
2018-07-17T15:21:36.033Z,3.23
2018-07-17T15:24:08.840Z,2.93
2018-07-17T15:29:52.501Z,2.93
2018-07-17T15:32:39.188Z,2.97
2018-07-17T15:35:24.151Z,2.73
2018-07-17T15:37:58.344Z,3.07
2018-07-17T15:41:01.859Z,2.73
2018-07-17T15:43:43.222Z,3.70
2018-07-17T15:46:20.177Z,4.27
2018-07-17T15:49:04.594Z,3.10
2018-07-17T15:51:35.084Z,4.23
2018-07-17T15:54:07.325Z,3.17
2018-07-17T15:56:37.329Z,3.60
2018-07-17T15:59:08.074Z,3.80
2018-07-17T16:01:45.958Z,3.50
2018-07-17T16:07:19.896Z,2.80
2018-07-17T16:09:52.596Z,3.07
2018-07-17T16:12:24.021Z,3.30
2018-07-17T16:15:01.192Z,2.70
2018-07-17T16:17:45.143Z,3.47
2018-07-17T16:20:14.536Z,3.50
2018-07-17T16:22:46.742Z,3.07
2018-07-17T16:25:20.141Z,2.90
2018-07-17T16:27:48.622Z,4.20
2018-07-17T16:30:16.729Z,3.00
2018-07-17T16:32:45.339Z,3.43
2018-07-17T16:35:17.879Z,4.13
2018-07-17T16:37:47.088Z,5.53
2018-07-17T16:40:16.766Z,4.33
2018-07-17T16:42:46.992Z,3.17
2018-07-17T16:45:17.479Z,3.13
2018-07-17T16:47:51.777Z,3.10
2018-07-17T16:50:21.402Z,3.53
2018-07-17T16:52:53.863Z,3.07
2018-07-17T16:55:22.660Z,3.30
2018-07-17T16:57:59.647Z,3.10
2018-07-17T17:00:41.612Z,3.10
2018-07-17T17:03:13.948Z,2.90
2018-07-17T17:05:43.331Z,3.20
2018-07-17T17:08:11.662Z,3.10
2018-07-17T17:10:43.874Z,2.97
2018-07-17T17:13:13.780Z,3.10
2018-07-17T17:15:43.514Z,3.33
2018-07-17T17:18:12.273Z,2.73
2018-07-17T17:29:03.057Z,3.37
2018-07-17T17:31:35.990Z,3.77
2018-07-17T17:34:07.970Z,6.43
2018-07-17T17:37:07.232Z,3.40
2018-07-17T17:39:51.254Z,3.70
2018-07-17T17:42:19.468Z,3.50
2018-07-17T17:45:04.703Z,3.23
2018-07-17T17:47:34.770Z,3.33
2018-07-17T17:50:03.581Z,3.73
2018-07-17T17:52:31.803Z,3.67
2018-07-17T17:55:04.519Z,3.47
2018-07-17T17:57:32.593Z,4.30
2018-07-17T18:00:01.121Z,3.33
2018-07-17T18:02:29.423Z,3.53
2018-07-17T18:05:00.176Z,4.17
2018-07-17T18:07:31.859Z,3.80
2018-07-17T18:10:00.574Z,3.67
2018-07-17T18:12:33.804Z,3.40
2018-07-17T18:15:03.173Z,3.97
2018-07-17T18:17:32.492Z,3.90
2018-07-17T18:20:03.605Z,4.17
2018-07-17T18:22:35.469Z,3.80
2018-07-17T18:25:08.148Z,3.60
2018-07-17T18:27:43.882Z,5.13
2018-07-17T18:30:13.149Z,4.93
2018-07-17T18:32:58.019Z,5.67
2018-07-17T18:35:28.012Z,5.47
2018-07-17T18:38:01.578Z,4.83
2018-07-17T18:40:39.851Z,4.73
2018-07-17T18:43:08.257Z,6.80
2018-07-17T18:45:38.571Z,6.33
2018-07-17T18:48:06.560Z,7.60
2018-07-17T18:50:38.839Z,5.53
2018-07-17T18:53:07.259Z,5.30
2018-07-17T18:55:45.573Z,4.70
2018-07-17T18:58:17.599Z,6.53
2018-07-17T19:00:57.984Z,4.90
2018-07-17T19:03:27.848Z,5.60
2018-07-17T19:06:01.945Z,5.03
2018-07-17T19:08:31.828Z,5.47
2018-07-17T19:11:00.489Z,5.10
2018-07-17T19:13:30.540Z,5.57
2018-07-17T19:16:03.486Z,5.40
2018-07-17T19:18:45.736Z,5.40
2018-07-17T19:21:14.105Z,5.30
2018-07-17T19:23:43.781Z,5.70
2018-07-17T19:26:12.375Z,5.20
2018-07-17T19:28:41.695Z,5.17
2018-07-17T19:31:12.584Z,5.13
2018-07-17T19:33:45.217Z,5.50
2018-07-17T19:36:14.690Z,5.30
2018-07-17T19:38:44.614Z,5.53
2018-07-17T19:41:16.319Z,5.50
2018-07-17T19:44:07.501Z,5.30
2018-07-17T19:46:37.236Z,4.67
2018-07-17T19:49:06.745Z,5.90
2018-07-17T19:51:35.350Z,5.40
2018-07-17T19:54:08.624Z,5.40
2018-07-17T19:56:37.554Z,5.00
2018-07-17T19:59:06.409Z,5.37
2018-07-17T20:01:34.724Z,5.17
2018-07-17T20:04:04.733Z,5.17
2018-07-17T20:06:35.728Z,4.67
2018-07-17T20:09:05.551Z,5.63
2018-07-17T20:11:35.670Z,5.07
2018-07-17T20:14:04.894Z,6.30
2018-07-17T20:16:33.640Z,5.20
2018-07-17T20:19:01.654Z,5.20
2018-07-17T20:21:30.723Z,5.03
2018-07-17T20:23:59.870Z,5.37
2018-07-17T20:26:29.078Z,5.30
2018-07-17T20:28:58.703Z,5.00
2018-07-17T20:31:27.605Z,5.30
2018-07-17T20:34:02.480Z,4.80
2018-07-17T20:36:33.161Z,5.30
2018-07-17T20:39:02.996Z,5.73
2018-07-17T20:41:31.398Z,4.73
2018-07-17T20:44:00.265Z,5.40
2018-07-17T20:46:29.116Z,4.87
2018-07-17T20:49:00.199Z,4.60
2018-07-17T20:51:30.023Z,4.93
2018-07-17T20:53:59.004Z,5.00
2018-07-17T20:56:28.454Z,4.73
2018-07-17T20:58:57.673Z,4.73
2018-07-17T21:01:27.400Z,4.93
2018-07-17T21:03:57.267Z,4.80
2018-07-17T21:06:26.197Z,4.30
2018-07-17T21:08:55.760Z,4.77
2018-07-17T21:11:24.772Z,7.90
2018-07-17T21:13:53.414Z,4.87
2018-07-17T21:16:25.353Z,4.40
2018-07-17T21:18:54.165Z,4.77
2018-07-17T21:21:23.994Z,6.57
2018-07-17T21:23:56.700Z,4.83
2018-07-17T21:26:27.875Z,4.93
2018-07-17T21:28:58.279Z,4.17
2018-07-17T21:31:27.502Z,4.80
2018-07-17T21:33:57.683Z,4.50
2018-07-17T21:36:26.707Z,4.47
2018-07-17T21:38:57.420Z,7.70
2018-07-17T21:41:30.842Z,4.00
2018-07-17T21:44:01.704Z,5.37
2018-07-17T21:46:35.559Z,4.30
2018-07-17T21:51:50.676Z,4.60
2018-07-17T21:57:04.007Z,6.20
2018-07-17T21:59:43.006Z,5.13
2018-07-17T22:02:11.847Z,6.53
2018-07-17T22:04:47.609Z,4.70
2018-07-17T22:10:07.638Z,4.07
2018-07-17T22:12:42.488Z,4.40
2018-07-17T22:28:13.593Z,5.10
2018-07-17T22:35:59.345Z,4.30
2018-07-17T23:00:07.698Z,4.50
2018-07-17T23:02:41.362Z,5.50
2018-07-17T23:25:58.399Z,5.10
2018-07-17T23:31:04.482Z,5.10
2018-07-17T23:36:06.066Z,4.80
2018-07-17T23:41:11.948Z,4.87
2018-07-17T23:43:39.597Z,5.37
2018-07-17T23:46:22.262Z,4.60
2018-07-17T23:56:57.325Z,5.20
